createdAt,value
2019-05-14T00:02:21.862Z,1.90
2019-05-14T00:04:52.025Z,1.93
2019-05-14T00:07:24.319Z,2.03
2019-05-14T00:09:54.019Z,1.83
2019-05-14T00:12:23.558Z,2.00
2019-05-14T00:14:54.065Z,2.10
2019-05-14T00:17:26.267Z,1.97
2019-05-14T00:20:06.493Z,2.10
2019-05-14T00:22:32.015Z,1.93
2019-05-14T00:25:08.432Z,1.90
2019-05-14T00:27:38.596Z,1.80
2019-05-14T00:30:13.450Z,1.93
2019-05-14T00:32:43.856Z,2.00
2019-05-14T00:35:35.706Z,2.20
2019-05-14T00:38:06.207Z,2.10
2019-05-14T00:40:35.706Z,2.20
2019-05-14T00:43:13.625Z,2.33
2019-05-14T00:45:57.719Z,2.40
2019-05-14T00:48:27.626Z,2.00
2019-05-14T00:50:57.772Z,1.90
2019-05-14T00:53:27.462Z,2.00
2019-05-14T00:55:56.951Z,2.20
2019-05-14T00:58:26.419Z,2.00
2019-05-14T01:00:55.974Z,2.30
2019-05-14T01:03:25.708Z,2.30
2019-05-14T01:05:55.428Z,2.43
2019-05-14T01:08:25.018Z,2.50
2019-05-14T01:10:54.611Z,2.60
2019-05-14T01:13:24.753Z,2.50
2019-05-14T01:15:54.237Z,2.53
2019-05-14T01:18:26.428Z,2.50
2019-05-14T01:20:55.267Z,2.60
2019-05-14T01:23:24.889Z,2.50
2019-05-14T01:25:55.720Z,2.47
2019-05-14T01:28:25.580Z,2.67
2019-05-14T01:30:55.260Z,2.27
2019-05-14T01:33:24.837Z,2.37
2019-05-14T01:35:54.715Z,2.70
2019-05-14T01:38:24.572Z,2.87
2019-05-14T01:40:54.148Z,2.60
2019-05-14T01:43:24.754Z,2.70
2019-05-14T01:45:55.576Z,2.60
2019-05-14T01:48:25.068Z,2.63
2019-05-14T01:50:54.600Z,2.90
2019-05-14T01:53:24.027Z,2.80
2019-05-14T01:55:54.289Z,2.20
2019-05-14T01:58:23.989Z,2.97
2019-05-14T02:00:53.643Z,2.30
2019-05-14T02:03:23.250Z,2.90
2019-05-14T02:05:52.739Z,2.80
2019-05-14T02:08:22.495Z,2.60
2019-05-14T02:10:52.704Z,2.87
2019-05-14T02:13:22.354Z,3.00
2019-05-14T02:15:52.237Z,2.80
2019-05-14T02:18:22.587Z,2.60
2019-05-14T02:20:52.657Z,2.50
2019-05-14T02:23:22.941Z,2.80
2019-05-14T02:25:54.635Z,3.00
2019-05-14T02:28:25.733Z,4.07
2019-05-14T02:30:59.025Z,4.17
2019-05-14T02:33:30.304Z,4.67
2019-05-14T02:35:59.963Z,2.73
2019-05-14T02:38:30.380Z,2.40
2019-05-14T02:41:00.319Z,2.83
2019-05-14T02:43:29.953Z,3.00
2019-05-14T02:46:11.488Z,3.53
2019-05-14T02:48:34.568Z,3.70
2019-05-14T02:51:04.063Z,3.53
2019-05-14T02:53:33.583Z,3.50
2019-05-14T02:56:03.218Z,2.87
2019-05-14T02:58:33.035Z,2.80
2019-05-14T03:01:02.717Z,3.07
2019-05-14T03:03:32.353Z,2.67
2019-05-14T03:06:02.305Z,3.00
2019-05-14T03:08:32.898Z,3.37
2019-05-14T03:11:03.208Z,3.40
2019-05-14T03:13:32.716Z,2.80
2019-05-14T03:16:20.709Z,2.90
2019-05-14T03:18:34.013Z,3.20
2019-05-14T03:21:05.755Z,3.00
2019-05-14T03:23:39.295Z,3.33
2019-05-14T03:26:09.869Z,3.23
2019-05-14T03:28:40.249Z,3.37
2019-05-14T03:31:13.108Z,2.50
2019-05-14T03:33:44.274Z,3.30
2019-05-14T03:36:17.828Z,3.37
2019-05-14T03:38:45.619Z,2.73
2019-05-14T03:41:15.640Z,3.10
2019-05-14T03:43:45.510Z,3.13
2019-05-14T03:46:16.231Z,3.17
2019-05-14T03:48:49.124Z,3.00
2019-05-14T03:51:20.413Z,2.67
2019-05-14T03:54:01.352Z,2.77
2019-05-14T03:56:21.869Z,2.90
2019-05-14T03:58:51.381Z,3.20
2019-05-14T04:01:22.656Z,2.90
2019-05-14T04:03:52.651Z,3.43
2019-05-14T04:06:23.592Z,2.50
2019-05-14T04:08:54.076Z,2.60
2019-05-14T04:11:24.236Z,2.87
2019-05-14T04:14:00.155Z,2.80
2019-05-14T04:16:34.924Z,3.10
2019-05-14T04:19:05.845Z,2.97
2019-05-14T04:21:39.822Z,2.60
2019-05-14T04:24:10.399Z,3.00
2019-05-14T04:26:56.193Z,2.70
2019-05-14T04:29:19.669Z,3.07
2019-05-14T04:32:00.171Z,2.90
2019-05-14T04:34:30.943Z,2.30
2019-05-14T04:37:01.623Z,3.50
2019-05-14T04:39:31.999Z,2.80
2019-05-14T04:42:02.732Z,3.40
2019-05-14T04:44:32.847Z,2.87
2019-05-14T04:47:21.770Z,3.10
2019-05-14T04:49:33.560Z,2.77
2019-05-14T04:52:03.765Z,3.07
2019-05-14T04:54:33.552Z,2.70
2019-05-14T04:57:04.661Z,2.80
2019-05-14T04:59:39.984Z,3.37
2019-05-14T05:02:10.024Z,3.00
2019-05-14T05:04:41.466Z,3.10
2019-05-14T05:07:12.646Z,3.30
2019-05-14T05:09:42.376Z,2.73
2019-05-14T05:12:12.152Z,3.20
2019-05-14T05:14:41.789Z,2.60
2019-05-14T05:17:11.333Z,3.23
2019-05-14T05:19:45.453Z,2.80
2019-05-14T05:22:14.832Z,3.13
2019-05-14T05:24:44.804Z,3.30
2019-05-14T05:27:14.424Z,3.07
2019-05-14T05:29:44.092Z,3.17
2019-05-14T05:32:13.785Z,3.47
2019-05-14T05:34:43.296Z,2.50
2019-05-14T05:37:14.193Z,3.13
2019-05-14T05:39:44.086Z,3.47
2019-05-14T05:42:13.650Z,3.10
2019-05-14T05:44:43.409Z,3.63
2019-05-14T05:47:12.997Z,2.90
2019-05-14T05:49:42.673Z,3.23
2019-05-14T05:52:12.637Z,2.73
2019-05-14T05:54:42.234Z,3.13
2019-05-14T05:57:12.485Z,3.27
2019-05-14T06:00:21.539Z,3.07
2019-05-14T06:02:51.198Z,3.40
2019-05-14T06:05:20.962Z,3.10
2019-05-14T06:07:50.252Z,3.03
2019-05-14T06:10:20.138Z,2.90
2019-05-14T06:12:51.141Z,3.20
2019-05-14T06:15:20.915Z,2.87
2019-05-14T06:17:50.303Z,4.20
2019-05-14T06:20:20.047Z,3.07
2019-05-14T06:22:49.873Z,3.10
2019-05-14T06:25:21.087Z,2.97
2019-05-14T06:27:51.293Z,3.10
2019-05-14T06:30:33.889Z,3.00
2019-05-14T06:33:03.792Z,2.70
2019-05-14T06:35:33.382Z,3.17
2019-05-14T06:38:03.703Z,3.30
2019-05-14T06:40:34.466Z,2.40
2019-05-14T06:43:04.002Z,2.30
2019-05-14T06:45:38.233Z,1.97
2019-05-14T06:48:08.742Z,2.83
2019-05-14T06:50:52.883Z,2.50
2019-05-14T06:53:22.970Z,3.20
2019-05-14T06:55:52.873Z,2.03
2019-05-14T06:58:23.129Z,1.97
2019-05-14T07:00:54.350Z,2.00
2019-05-14T07:03:24.055Z,2.70
2019-05-14T07:05:54.305Z,3.00
2019-05-14T07:08:24.007Z,2.80
2019-05-14T07:10:59.217Z,2.30
2019-05-14T07:13:29.460Z,2.50
2019-05-14T07:16:00.647Z,2.60
2019-05-14T07:18:45.425Z,2.40
2019-05-14T07:21:02.120Z,2.63
2019-05-14T07:23:32.237Z,2.50
2019-05-14T07:26:03.354Z,3.37
2019-05-14T07:28:32.892Z,2.50
2019-05-14T07:31:02.408Z,2.63
2019-05-14T07:33:32.143Z,2.63
2019-05-14T07:36:02.601Z,2.47
2019-05-14T07:38:32.251Z,2.67
2019-05-14T07:41:02.099Z,2.87
2019-05-14T07:43:31.708Z,2.40
2019-05-14T07:46:01.422Z,2.37
2019-05-14T07:48:31.497Z,2.03
2019-05-14T07:51:01.227Z,2.43
2019-05-14T07:53:38.561Z,1.60
2019-05-14T07:56:02.401Z,2.13
2019-05-14T07:58:32.331Z,2.37
2019-05-14T08:01:01.941Z,2.27
2019-05-14T08:03:31.475Z,2.00
2019-05-14T08:06:01.214Z,1.80
2019-05-14T08:08:32.552Z,2.53
2019-05-14T08:11:02.598Z,2.20
2019-05-14T08:13:32.571Z,1.83
2019-05-14T08:16:03.050Z,2.37
2019-05-14T08:18:33.568Z,1.93
2019-05-14T08:21:04.057Z,1.70
2019-05-14T08:23:33.940Z,1.70
2019-05-14T08:26:04.148Z,1.90
2019-05-14T08:28:34.115Z,1.83
2019-05-14T08:31:19.458Z,2.20
2019-05-14T08:33:49.281Z,1.90
2019-05-14T08:36:18.857Z,1.67
2019-05-14T08:38:50.480Z,1.67
2019-05-14T08:41:20.559Z,1.63
2019-05-14T08:43:50.146Z,1.30
2019-05-14T08:46:20.172Z,1.50
2019-05-14T08:48:50.457Z,1.50
2019-05-14T08:51:21.927Z,1.63
2019-05-14T08:53:52.438Z,1.37
2019-05-14T08:56:22.584Z,1.73
2019-05-14T08:58:54.506Z,1.60
2019-05-14T09:01:24.319Z,1.67
2019-05-14T09:03:53.748Z,1.67
2019-05-14T09:06:23.292Z,1.60
2019-05-14T09:08:53.261Z,1.80
2019-05-14T09:11:26.092Z,1.40
2019-05-14T09:13:55.932Z,1.33
2019-05-14T09:16:39.514Z,1.37
2019-05-14T09:18:59.745Z,1.53
2019-05-14T09:21:29.821Z,1.50
2019-05-14T09:23:59.356Z,1.63
2019-05-14T09:26:29.532Z,1.43
2019-05-14T09:29:16.995Z,1.73
2019-05-14T09:31:32.731Z,1.80
2019-05-14T09:34:02.370Z,1.30
2019-05-14T09:36:31.761Z,1.77
2019-05-14T09:39:01.167Z,1.27
2019-05-14T09:41:31.694Z,1.80
2019-05-14T09:44:01.578Z,1.77
2019-05-14T09:46:31.353Z,1.40
2019-05-14T09:49:02.030Z,1.43
2019-05-14T09:51:38.149Z,1.20
2019-05-14T09:54:08.351Z,2.10
2019-05-14T09:56:39.374Z,1.60
2019-05-14T09:59:09.334Z,1.70
2019-05-14T10:01:40.323Z,1.73
2019-05-14T10:04:10.051Z,1.90
2019-05-14T10:06:39.754Z,1.90
2019-05-14T10:09:10.294Z,1.90
2019-05-14T10:11:41.970Z,1.70
2019-05-14T10:14:11.797Z,2.10
2019-05-14T10:16:41.130Z,2.10
2019-05-14T10:19:10.632Z,1.67
2019-05-14T10:21:39.912Z,1.77
2019-05-14T10:24:09.711Z,1.70
2019-05-14T10:26:39.562Z,1.30
2019-05-14T10:29:12.073Z,1.53
2019-05-14T10:31:41.726Z,1.47
2019-05-14T10:34:11.164Z,1.90
2019-05-14T10:36:40.441Z,1.60
2019-05-14T10:39:10.625Z,1.80
2019-05-14T10:41:40.367Z,1.67
2019-05-14T10:44:09.792Z,2.23
2019-05-14T10:46:39.991Z,1.87
2019-05-14T10:49:17.407Z,2.00
2019-05-14T10:51:50.746Z,1.40
2019-05-14T10:54:25.172Z,2.47
2019-05-14T10:56:51.442Z,2.00
2019-05-14T10:59:21.883Z,1.70
2019-05-14T11:01:52.619Z,1.63
2019-05-14T11:04:25.358Z,1.40
2019-05-14T11:06:55.154Z,1.67
2019-05-14T11:09:28.425Z,1.60
2019-05-14T11:11:58.323Z,2.07
2019-05-14T11:14:31.740Z,1.70
2019-05-14T11:16:59.875Z,1.90
2019-05-14T11:19:29.814Z,1.90
2019-05-14T11:21:59.629Z,1.53
2019-05-14T11:24:32.264Z,1.67
2019-05-14T11:27:01.870Z,1.77
2019-05-14T11:29:31.201Z,1.87
2019-05-14T11:32:00.941Z,1.40
2019-05-14T11:34:30.522Z,1.37
2019-05-14T11:37:00.416Z,1.60
2019-05-14T11:39:30.675Z,1.80
2019-05-14T11:42:00.104Z,1.90
2019-05-14T11:44:31.519Z,1.87
2019-05-14T11:47:02.722Z,1.90
2019-05-14T11:49:33.719Z,1.50
2019-05-14T11:52:08.664Z,2.17
2019-05-14T11:54:40.613Z,2.13
2019-05-14T11:57:11.567Z,1.80
2019-05-14T11:59:39.933Z,1.97
2019-05-14T12:02:09.836Z,1.90
2019-05-14T12:04:42.482Z,1.30
2019-05-14T12:07:13.300Z,1.87
2019-05-14T12:09:44.181Z,1.63
2019-05-14T12:12:19.085Z,1.60
2019-05-14T12:14:50.131Z,1.97
2019-05-14T12:17:20.294Z,2.23
2019-05-14T12:19:59.290Z,1.73
2019-05-14T12:22:28.685Z,2.10
2019-05-14T12:24:58.801Z,1.73
2019-05-14T12:27:28.748Z,2.10
2019-05-14T12:29:59.868Z,2.20
2019-05-14T12:32:29.689Z,1.50
2019-05-14T12:34:59.708Z,1.70
2019-05-14T12:37:29.277Z,1.90
2019-05-14T12:39:59.188Z,1.80
2019-05-14T12:42:29.594Z,1.77
2019-05-14T12:44:59.183Z,1.47
2019-05-14T12:47:29.147Z,1.30
2019-05-14T12:49:59.170Z,1.67
2019-05-14T12:52:29.726Z,1.70
2019-05-14T12:55:00.143Z,1.63
2019-05-14T12:57:30.186Z,1.50
2019-05-14T12:59:59.683Z,1.70
2019-05-14T13:02:29.694Z,2.03
2019-05-14T13:05:00.210Z,1.47
2019-05-14T13:07:29.763Z,1.50
2019-05-14T13:09:59.291Z,1.47
2019-05-14T13:12:29.739Z,1.37
2019-05-14T13:14:59.735Z,1.40
2019-05-14T13:17:29.119Z,1.50
2019-05-14T13:20:13.649Z,1.73
2019-05-14T13:22:55.425Z,1.30
2019-05-14T13:25:39.626Z,1.63
2019-05-14T13:28:10.828Z,1.70
2019-05-14T13:30:41.556Z,1.33
2019-05-14T13:33:10.994Z,1.77
2019-05-14T13:35:40.471Z,1.60
2019-05-14T13:38:14.318Z,1.77
2019-05-14T13:40:41.973Z,1.70
2019-05-14T13:43:14.380Z,1.53
2019-05-14T13:45:43.103Z,1.60
2019-05-14T13:48:12.501Z,1.77
2019-05-14T13:50:42.430Z,1.73
2019-05-14T13:53:12.964Z,1.90
2019-05-14T13:55:45.604Z,1.70
2019-05-14T13:58:14.308Z,1.83
2019-05-14T14:00:43.702Z,1.83
2019-05-14T14:03:13.167Z,1.63
2019-05-14T14:05:44.739Z,1.60
2019-05-14T14:08:15.545Z,2.00
2019-05-14T14:10:51.725Z,1.77
2019-05-14T14:13:19.758Z,1.40
2019-05-14T14:15:49.049Z,1.57
2019-05-14T14:18:21.019Z,1.47
2019-05-14T14:20:52.017Z,1.97
2019-05-14T14:23:27.248Z,2.00
2019-05-14T14:25:55.625Z,1.60
2019-05-14T14:28:24.966Z,1.30
2019-05-14T14:30:54.392Z,1.67
2019-05-14T14:33:23.811Z,2.00
2019-05-14T14:35:53.844Z,2.17
2019-05-14T14:38:23.864Z,1.77
2019-05-14T14:40:53.625Z,1.80
2019-05-14T14:43:23.213Z,1.50
2019-05-14T14:45:52.868Z,1.70
2019-05-14T14:48:22.948Z,1.80
2019-05-14T14:50:52.672Z,1.33
2019-05-14T14:53:41.465Z,1.50
2019-05-14T14:55:54.119Z,1.77
2019-05-14T14:58:23.731Z,1.80
2019-05-14T15:03:31.733Z,1.57
2019-05-14T15:06:01.428Z,1.60
2019-05-14T15:08:30.909Z,1.40
2019-05-14T15:11:01.411Z,1.50
2019-05-14T15:13:31.337Z,1.60
2019-05-14T15:16:01.405Z,1.53
2019-05-14T15:18:31.027Z,1.40
2019-05-14T15:21:00.583Z,1.33
2019-05-14T15:23:30.718Z,1.40
2019-05-14T15:26:01.014Z,1.60
2019-05-14T15:28:30.596Z,1.57
2019-05-14T15:31:01.074Z,1.80
2019-05-14T15:33:31.037Z,1.37
2019-05-14T15:36:00.505Z,1.50
2019-05-14T15:38:30.694Z,1.63
2019-05-14T15:41:00.432Z,1.70
2019-05-14T15:43:30.323Z,1.70
2019-05-14T15:45:59.687Z,1.50
2019-05-14T15:48:29.759Z,1.87
2019-05-14T15:51:00.090Z,1.40
2019-05-14T15:53:29.711Z,1.23
2019-05-14T15:56:00.379Z,1.40
2019-05-14T15:58:30.539Z,1.67
2019-05-14T16:01:01.282Z,1.43
2019-05-14T16:03:30.696Z,1.53
2019-05-14T16:06:01.852Z,1.70
2019-05-14T16:08:32.995Z,1.50
2019-05-14T16:11:05.512Z,1.47
2019-05-14T16:13:35.171Z,1.50
2019-05-14T16:16:04.917Z,1.80
2019-05-14T16:18:34.292Z,1.60
2019-05-14T16:21:04.396Z,1.63
2019-05-14T16:23:34.473Z,1.67
2019-05-14T16:26:10.621Z,2.33
2019-05-14T16:28:39.973Z,1.63
2019-05-14T16:31:09.639Z,1.80
2019-05-14T16:33:40.681Z,1.83
2019-05-14T16:36:11.703Z,1.93
2019-05-14T16:38:41.858Z,1.57
2019-05-14T16:41:18.979Z,1.77
2019-05-14T16:43:49.645Z,1.87
2019-05-14T16:46:20.286Z,1.97
2019-05-14T16:48:49.691Z,1.70
2019-05-14T16:51:35.648Z,1.67
2019-05-14T16:54:22.996Z,1.00
2019-05-14T16:57:11.076Z,1.87
2019-05-14T16:59:49.435Z,1.90
2019-05-14T17:02:19.081Z,1.60
2019-05-14T17:04:48.696Z,2.53
2019-05-14T17:07:18.717Z,5.40
2019-05-14T17:09:49.326Z,2.60
2019-05-14T17:12:22.558Z,1.90
2019-05-14T17:14:50.607Z,2.20
2019-05-14T17:17:20.684Z,2.30
2019-05-14T17:19:50.645Z,1.50
2019-05-14T17:22:28.482Z,1.53
2019-05-14T17:24:52.315Z,5.40
2019-05-14T17:27:22.243Z,2.13
2019-05-14T17:29:52.094Z,2.53
2019-05-14T17:32:22.054Z,1.63
2019-05-14T17:34:52.047Z,2.80
2019-05-14T17:37:21.516Z,2.20
2019-05-14T17:39:51.893Z,2.03
2019-05-14T17:42:21.830Z,2.30
2019-05-14T17:44:53.793Z,2.60
2019-05-14T17:47:24.401Z,2.00
2019-05-14T17:49:54.018Z,2.77
2019-05-14T17:52:23.664Z,1.87
2019-05-14T17:54:53.987Z,1.50
2019-05-14T17:57:25.836Z,1.83
2019-05-14T18:00:00.732Z,1.30
2019-05-14T18:02:32.035Z,1.80
2019-05-14T18:05:02.328Z,1.90
2019-05-14T18:07:32.012Z,2.00
2019-05-14T18:10:11.108Z,1.60
2019-05-14T18:12:41.490Z,2.07
2019-05-14T18:15:11.709Z,3.57
2019-05-14T18:17:41.168Z,2.70
2019-05-14T18:20:11.485Z,1.77
2019-05-14T18:22:42.634Z,2.30
2019-05-14T18:25:13.974Z,1.90
2019-05-14T18:27:44.290Z,1.47
2019-05-14T18:30:15.435Z,1.53
2019-05-14T18:32:45.543Z,2.00
2019-05-14T18:35:15.480Z,1.77
2019-05-14T18:37:48.238Z,1.90
2019-05-14T18:40:18.394Z,1.60
2019-05-14T18:42:48.365Z,2.70
2019-05-14T18:45:18.985Z,2.40
2019-05-14T18:47:48.676Z,3.30
2019-05-14T18:50:19.559Z,1.80
2019-05-14T18:52:50.072Z,2.70
2019-05-14T18:55:20.048Z,2.40
2019-05-14T18:57:49.471Z,2.00
2019-05-14T19:00:20.509Z,3.20
2019-05-14T19:02:50.307Z,3.23
2019-05-14T19:05:21.037Z,2.70
2019-05-14T19:07:51.028Z,2.70
2019-05-14T19:10:22.433Z,2.00
2019-05-14T19:12:54.743Z,4.20
2019-05-14T19:15:24.941Z,2.20
2019-05-14T19:17:57.690Z,2.60
2019-05-14T19:20:28.239Z,2.00
2019-05-14T19:23:00.225Z,1.73
2019-05-14T19:25:29.831Z,2.30
2019-05-14T19:27:59.412Z,2.27
2019-05-14T19:30:28.831Z,2.33
2019-05-14T19:32:58.755Z,2.37
2019-05-14T19:35:28.995Z,2.07
2019-05-14T19:37:59.579Z,2.40
2019-05-14T19:40:29.071Z,2.27
2019-05-14T19:42:58.801Z,2.50
2019-05-14T19:45:30.138Z,2.60
2019-05-14T19:47:59.685Z,2.40
2019-05-14T19:50:29.636Z,2.63
2019-05-14T19:52:59.964Z,2.90
2019-05-14T19:55:32.286Z,3.43
2019-05-14T19:58:02.246Z,2.80
2019-05-14T20:00:32.107Z,3.53
2019-05-14T20:03:01.629Z,2.80
2019-05-14T20:05:31.468Z,2.90
2019-05-14T20:08:00.881Z,2.80
2019-05-14T20:10:30.498Z,2.87
2019-05-14T20:13:00.512Z,3.33
2019-05-14T20:15:32.812Z,3.07
2019-05-14T20:18:02.288Z,3.50
2019-05-14T20:20:31.896Z,3.80
2019-05-14T20:23:01.839Z,4.10
2019-05-14T20:25:31.804Z,2.63
2019-05-14T20:28:01.489Z,1.93
2019-05-14T20:30:31.626Z,2.43
2019-05-14T20:33:01.732Z,2.00
2019-05-14T20:35:34.828Z,2.30
2019-05-14T20:38:02.544Z,2.10
2019-05-14T20:40:32.794Z,2.03
2019-05-14T20:43:02.785Z,2.33
2019-05-14T20:45:32.931Z,2.37
2019-05-14T20:48:03.056Z,2.23
2019-05-14T20:50:33.536Z,2.47
2019-05-14T20:53:03.383Z,2.87
2019-05-14T20:55:33.243Z,3.37
2019-05-14T20:58:02.931Z,3.17
2019-05-14T21:00:32.500Z,3.23
2019-05-14T21:03:02.136Z,1.97
2019-05-14T21:05:31.842Z,2.80
2019-05-14T21:08:01.868Z,2.50
2019-05-14T21:10:31.970Z,2.57
2019-05-14T21:13:04.145Z,2.80
2019-05-14T21:15:34.393Z,2.80
2019-05-14T21:18:07.967Z,2.30
2019-05-14T21:20:39.322Z,2.90
2019-05-14T21:23:09.857Z,2.90
2019-05-14T21:25:39.518Z,2.70
2019-05-14T21:28:09.579Z,2.60
2019-05-14T21:30:39.744Z,2.70
2019-05-14T21:33:09.607Z,3.20
2019-05-14T21:35:39.764Z,2.93
2019-05-14T21:38:09.573Z,2.70
2019-05-14T21:40:39.364Z,2.90
2019-05-14T21:43:11.285Z,3.30
2019-05-14T21:45:40.494Z,3.17
2019-05-14T21:48:10.483Z,2.77
2019-05-14T21:50:40.250Z,2.90
2019-05-14T21:53:09.747Z,3.50
2019-05-14T21:55:41.333Z,3.20
2019-05-14T21:58:11.949Z,2.90
2019-05-14T22:00:48.452Z,2.60
2019-05-14T22:03:20.742Z,3.07
2019-05-14T22:05:54.393Z,2.93
2019-05-14T22:08:23.819Z,2.83
2019-05-14T22:10:53.315Z,3.37
2019-05-14T22:13:24.784Z,2.90
2019-05-14T22:15:54.734Z,3.30
2019-05-14T22:18:24.676Z,3.20
2019-05-14T22:20:57.843Z,2.90
2019-05-14T22:23:29.282Z,3.23
2019-05-14T22:26:01.843Z,3.20
2019-05-14T22:28:34.098Z,3.50
2019-05-14T22:31:04.118Z,3.57
2019-05-14T22:33:33.750Z,3.57
2019-05-14T22:36:04.153Z,3.50
2019-05-14T22:38:33.902Z,3.40
2019-05-14T22:41:03.479Z,2.80
2019-05-14T22:43:33.951Z,3.73
2019-05-14T22:46:04.636Z,3.57
2019-05-14T22:48:34.219Z,3.30
2019-05-14T22:51:03.678Z,3.50
2019-05-14T22:53:33.728Z,4.07
2019-05-14T22:56:03.144Z,4.10
2019-05-14T22:58:33.132Z,3.80
2019-05-14T23:01:14.327Z,3.37
2019-05-14T23:07:02.293Z,3.57
2019-05-14T23:09:31.750Z,3.50
2019-05-14T23:12:01.095Z,3.27
2019-05-14T23:14:30.773Z,3.53
2019-05-14T23:17:01.136Z,3.40
2019-05-14T23:19:31.081Z,3.50
2019-05-14T23:22:04.175Z,3.50
2019-05-14T23:24:33.969Z,2.90
2019-05-14T23:27:04.301Z,2.83
2019-05-14T23:29:33.921Z,3.53
2019-05-14T23:32:03.721Z,3.23
2019-05-14T23:34:33.178Z,3.27
2019-05-14T23:37:04.869Z,3.70
2019-05-14T23:39:34.726Z,3.43
2019-05-14T23:42:04.948Z,3.73
2019-05-14T23:44:34.488Z,3.60
2019-05-14T23:47:08.246Z,4.10
2019-05-14T23:49:38.916Z,3.40
2019-05-14T23:52:09.224Z,3.93
2019-05-14T23:54:38.792Z,3.50
2019-05-14T23:57:08.884Z,3.87
2019-05-14T23:59:39.705Z,3.67
